createdAt,value
2019-05-30T00:00:28.437Z,60.00
2019-05-30T00:01:28.425Z,60.00
2019-05-30T00:02:28.422Z,64.00
2019-05-30T00:04:28.391Z,68.00
2019-05-30T00:06:28.373Z,76.00
2019-05-30T00:07:28.385Z,80.00
2019-05-30T00:08:28.363Z,84.00
2019-05-30T00:09:28.347Z,88.00
2019-05-30T00:10:28.325Z,92.00
2019-05-30T00:11:28.337Z,96.00
2019-05-30T00:12:28.308Z,100.00
2019-05-30T00:13:28.297Z,104.00
2019-05-30T00:14:28.290Z,112.00
2019-05-30T00:15:28.276Z,116.00
2019-05-30T00:16:28.280Z,124.00
2019-05-30T00:17:28.405Z,128.00
2019-05-30T00:18:28.237Z,140.00
2019-05-30T00:19:28.302Z,144.00
2019-05-30T00:20:28.219Z,152.00
2019-05-30T00:21:28.211Z,156.00
2019-05-30T00:22:28.199Z,168.00
2019-05-30T00:23:28.194Z,180.00
2019-05-30T00:24:28.182Z,188.00
2019-05-30T00:25:28.177Z,196.00
2019-05-30T00:26:39.977Z,204.00
2019-05-30T00:27:28.147Z,216.00
2019-05-30T00:29:28.156Z,244.00
2019-05-30T00:30:28.114Z,252.00
2019-05-30T00:31:28.102Z,268.00
2019-05-30T00:32:28.089Z,280.00
2019-05-30T00:33:28.080Z,296.00
2019-05-30T00:35:28.070Z,324.00
2019-05-30T00:37:28.036Z,356.00
2019-05-30T00:38:28.025Z,376.00
2019-05-30T00:39:28.009Z,396.00
2019-05-30T00:40:28.011Z,412.00
2019-05-30T00:41:27.987Z,436.00
2019-05-30T00:42:27.981Z,456.00
2019-05-30T00:43:27.973Z,476.00
2019-05-30T00:44:27.957Z,500.00
2019-05-30T00:45:27.951Z,520.00
2019-05-30T00:46:27.948Z,536.00
2019-05-30T00:47:27.927Z,560.00
2019-05-30T00:48:27.913Z,580.00
2019-05-30T00:49:27.905Z,600.00
2019-05-30T00:50:27.899Z,624.00
2019-05-30T00:51:27.889Z,652.00
2019-05-30T00:52:27.874Z,684.00
2019-05-30T00:53:27.859Z,716.00
2019-05-30T00:54:27.847Z,748.00
2019-05-30T00:55:27.843Z,788.00
2019-05-30T00:56:27.869Z,824.00
2019-05-30T00:57:39.112Z,860.00
2019-05-30T00:58:27.807Z,900.00
2019-05-30T01:00:42.996Z,968.00
2019-05-30T01:01:28.777Z,1012.00
2019-05-30T01:02:27.763Z,1056.00
2019-05-30T01:03:27.770Z,1100.00
2019-05-30T01:04:27.744Z,1148.00
2019-05-30T01:05:27.753Z,1200.00
2019-05-30T01:27:27.488Z,2540.00
2019-05-30T01:28:39.157Z,2616.00
2019-05-30T01:29:27.463Z,2688.00
2019-05-30T01:58:27.160Z,5092.00
2019-05-30T01:59:39.276Z,5172.00
2019-05-30T02:00:27.168Z,5252.00
2019-05-30T02:29:26.841Z,47488.00
2019-05-30T02:30:38.584Z,48800.00
2019-05-30T02:31:38.506Z,49248.00
2019-05-30T03:00:26.475Z,54464.00
2019-05-30T03:01:58.355Z,53600.00
2019-05-30T03:02:27.457Z,54048.00
2019-05-30T03:12:26.348Z,50336.00
2019-05-30T03:31:29.199Z,54240.00
2019-05-30T03:33:03.663Z,54848.00
2019-05-30T03:33:39.360Z,56000.00
2019-05-30T03:34:29.174Z,57248.00
2019-05-30T03:35:29.894Z,59584.00
2019-05-30T03:36:31.214Z,60256.00
2019-05-30T03:37:29.396Z,59904.00
2019-05-30T03:38:26.077Z,59744.00
2019-05-30T03:39:26.073Z,60608.00
2019-05-30T03:40:28.239Z,61504.00
2019-05-30T03:41:26.052Z,60864.00
2019-05-30T03:42:26.031Z,59744.00
2019-05-30T03:43:26.015Z,60544.00
2019-05-30T03:44:26.002Z,61600.00
2019-05-30T03:45:26.010Z,63648.00
2019-05-30T03:46:25.974Z,64192.00
2019-05-30T03:47:25.976Z,63648.00
2019-05-30T03:48:25.952Z,62688.00
2019-05-30T03:49:25.942Z,63008.00
2019-05-30T03:50:25.938Z,64640.00
2019-05-30T03:51:25.935Z,65472.00
2019-05-30T03:52:25.939Z,65024.00
2019-05-30T03:53:25.910Z,64544.00
2019-05-30T03:54:25.895Z,65920.00
2019-05-30T03:55:25.887Z,66464.00
2019-05-30T03:56:25.873Z,66272.00
2019-05-30T03:57:25.858Z,66176.00
2019-05-30T03:58:26.172Z,65632.00
2019-05-30T03:59:25.860Z,64864.00
2019-05-30T04:00:25.831Z,66368.00
2019-05-30T04:01:25.824Z,66720.00
2019-05-30T04:02:25.814Z,67040.00
2019-05-30T04:03:37.840Z,66752.00
2019-05-30T04:04:25.787Z,66464.00
2019-05-30T04:05:25.786Z,64448.00
2019-05-30T04:06:25.778Z,63168.00
2019-05-30T04:07:25.754Z,65600.00
2019-05-30T04:08:25.800Z,65984.00
2019-05-30T04:09:25.732Z,66592.00
2019-05-30T04:10:25.722Z,67616.00
2019-05-30T04:11:25.723Z,67360.00
2019-05-30T04:12:25.710Z,67360.00
2019-05-30T04:14:25.689Z,67424.00
2019-05-30T04:15:25.669Z,67808.00
2019-05-30T04:16:25.683Z,68640.00
2019-05-30T04:17:25.648Z,68896.00
2019-05-30T04:18:25.664Z,71584.00
2019-05-30T04:19:25.645Z,75200.00
2019-05-30T04:20:25.622Z,76928.00
2019-05-30T04:21:26.339Z,73984.00
2019-05-30T04:22:25.611Z,71712.00
2019-05-30T04:23:25.592Z,74912.00
2019-05-30T04:24:25.607Z,74816.00
2019-05-30T04:25:25.572Z,68768.00
2019-05-30T04:26:25.552Z,65728.00
2019-05-30T04:27:25.545Z,66016.00
2019-05-30T04:28:25.542Z,66848.00
2019-05-30T04:29:25.529Z,65600.00
2019-05-30T04:30:25.526Z,65568.00
2019-05-30T04:31:25.506Z,66720.00
2019-05-30T04:32:25.486Z,65760.00
2019-05-30T04:33:32.026Z,64032.00
2019-05-30T04:35:40.121Z,62400.00
2019-05-30T04:37:40.058Z,57984.00
2019-05-30T04:38:40.051Z,58816.00
2019-05-30T04:39:40.034Z,60480.00
2019-05-30T04:40:40.027Z,60960.00
2019-05-30T04:41:40.026Z,60864.00
2019-05-30T04:42:40.002Z,59360.00
2019-05-30T04:43:40.006Z,57440.00
2019-05-30T04:45:39.971Z,59200.00
2019-05-30T04:46:39.991Z,55456.00
2019-05-30T04:47:39.952Z,54432.00
2019-05-30T04:48:39.945Z,55360.00
2019-05-30T04:49:39.929Z,56608.00
2019-05-30T04:50:39.929Z,57120.00
2019-05-30T04:51:39.910Z,56160.00
2019-05-30T04:52:39.929Z,54880.00
2019-05-30T04:53:39.895Z,55744.00
2019-05-30T04:54:39.882Z,57280.00
2019-05-30T04:55:39.868Z,56992.00
2019-05-30T04:56:39.862Z,53856.00
2019-05-30T04:57:39.923Z,50944.00
2019-05-30T04:58:42.177Z,48288.00
2019-05-30T04:59:39.845Z,47904.00
2019-05-30T05:00:39.814Z,47616.00
2019-05-30T05:01:40.408Z,46240.00
2019-05-30T05:02:39.796Z,48000.00
2019-05-30T05:03:46.007Z,47648.00
2019-05-30T05:04:40.774Z,48960.00
2019-05-30T05:06:39.754Z,46528.00
2019-05-30T05:08:39.750Z,44960.00
2019-05-30T05:09:39.721Z,45792.00
2019-05-30T05:10:39.712Z,45216.00
2019-05-30T05:11:39.696Z,44288.00
2019-05-30T05:12:39.687Z,44416.00
2019-05-30T05:13:39.674Z,43424.00
2019-05-30T05:14:39.705Z,39264.00
2019-05-30T05:16:39.640Z,34880.00
2019-05-30T05:17:39.651Z,36768.00
2019-05-30T05:18:39.621Z,38048.00
2019-05-30T05:19:39.636Z,34464.00
2019-05-30T05:20:39.602Z,25440.00
2019-05-30T05:21:39.590Z,20480.00
2019-05-30T05:22:39.571Z,19776.00
2019-05-30T05:23:39.572Z,20352.00
2019-05-30T05:24:39.561Z,20608.00
2019-05-30T05:25:39.598Z,19680.00
2019-05-30T05:26:39.541Z,18720.00
2019-05-30T05:27:39.518Z,18304.00
2019-05-30T05:28:39.510Z,18208.00
2019-05-30T05:29:39.519Z,18208.00
2019-05-30T05:30:39.485Z,18720.00
2019-05-30T05:31:39.504Z,19744.00
2019-05-30T05:32:39.463Z,21120.00
2019-05-30T05:33:39.456Z,21824.00
2019-05-30T05:34:39.441Z,23712.00
2019-05-30T05:35:39.446Z,33696.00
2019-05-30T05:36:51.365Z,44576.00
2019-05-30T05:37:39.409Z,42304.00
2019-05-30T05:38:39.403Z,34208.00
2019-05-30T05:39:39.387Z,33152.00
2019-05-30T05:40:39.422Z,34464.00
2019-05-30T05:41:39.377Z,34304.00
2019-05-30T05:42:39.357Z,30112.00
2019-05-30T05:43:39.362Z,24960.00
2019-05-30T05:44:39.333Z,24512.00
2019-05-30T05:45:39.360Z,23872.00
2019-05-30T05:46:39.322Z,27264.00
2019-05-30T05:47:39.303Z,25472.00
2019-05-30T05:48:39.310Z,21088.00
2019-05-30T05:49:39.278Z,21344.00
2019-05-30T05:50:39.320Z,21824.00
2019-05-30T05:51:39.261Z,21248.00
2019-05-30T05:52:39.253Z,21632.00
2019-05-30T05:53:39.248Z,22080.00
2019-05-30T05:54:39.233Z,21440.00
2019-05-30T05:55:39.220Z,20576.00
2019-05-30T05:56:39.220Z,19872.00
2019-05-30T05:57:39.228Z,19904.00
2019-05-30T05:58:39.186Z,19584.00
2019-05-30T05:59:39.171Z,19584.00
2019-05-30T06:00:39.169Z,19968.00
2019-05-30T06:01:39.169Z,19232.00
2019-05-30T06:02:39.144Z,20064.00
2019-05-30T06:03:39.139Z,19744.00
2019-05-30T06:04:39.120Z,19680.00
2019-05-30T06:05:52.241Z,18496.00
2019-05-30T06:06:40.096Z,17824.00
2019-05-30T06:07:51.058Z,19552.00
2019-05-30T06:08:39.079Z,20448.00
2019-05-30T06:09:39.064Z,20192.00
2019-05-30T06:10:39.052Z,20160.00
2019-05-30T06:11:39.039Z,19616.00
2019-05-30T06:12:39.035Z,19392.00
2019-05-30T06:13:39.060Z,19616.00
2019-05-30T06:14:39.029Z,20192.00
2019-05-30T06:15:39.005Z,20128.00
2019-05-30T06:16:39.011Z,19360.00
2019-05-30T06:17:38.980Z,20064.00
2019-05-30T06:18:38.968Z,20832.00
2019-05-30T06:19:46.392Z,20032.00
2019-05-30T06:20:39.945Z,19328.00
2019-05-30T06:21:53.161Z,20736.00
2019-05-30T06:22:39.937Z,23104.00
2019-05-30T06:23:38.962Z,22944.00
2019-05-30T06:24:38.908Z,15672.00
2019-05-30T06:25:38.908Z,11408.00
2019-05-30T06:26:38.883Z,11156.00
2019-05-30T06:27:38.867Z,11024.00
2019-05-30T06:28:38.858Z,10928.00
2019-05-30T06:29:38.860Z,10860.00
2019-05-30T06:30:38.834Z,10816.00
2019-05-30T06:31:38.836Z,10820.00
2019-05-30T06:32:38.822Z,10824.00
2019-05-30T06:33:38.809Z,10852.00
2019-05-30T06:34:40.063Z,10876.00
2019-05-30T06:35:38.782Z,10880.00
2019-05-30T06:36:38.774Z,10888.00
2019-05-30T06:37:38.760Z,10888.00
2019-05-30T06:39:38.748Z,10864.00
2019-05-30T06:40:38.731Z,10852.00
2019-05-30T06:41:38.710Z,10836.00
2019-05-30T06:42:38.698Z,10824.00
2019-05-30T06:43:38.697Z,10820.00
2019-05-30T06:44:38.678Z,10816.00
2019-05-30T06:45:38.683Z,10824.00
2019-05-30T06:46:38.666Z,10824.00
2019-05-30T06:47:38.653Z,10808.00
2019-05-30T06:48:38.684Z,10788.00
2019-05-30T06:49:38.631Z,10796.00
2019-05-30T06:50:38.663Z,10776.00
2019-05-30T06:51:38.609Z,10788.00
2019-05-30T06:52:38.647Z,10784.00
2019-05-30T06:53:38.581Z,10788.00
2019-05-30T06:54:38.577Z,10788.00
2019-05-30T06:55:38.559Z,10780.00
2019-05-30T06:56:38.553Z,10832.00
2019-05-30T06:57:38.538Z,11048.00
2019-05-30T06:58:48.128Z,11240.00
2019-05-30T06:59:39.518Z,11140.00
2019-05-30T07:00:38.503Z,10888.00
2019-05-30T07:01:38.534Z,10692.00
2019-05-30T07:02:38.503Z,10592.00
2019-05-30T07:03:38.538Z,10540.00
2019-05-30T07:04:50.809Z,10512.00
2019-05-30T07:05:40.123Z,10492.00
2019-05-30T07:06:38.797Z,10472.00
2019-05-30T07:07:38.683Z,10436.00
2019-05-30T07:08:38.420Z,10420.00
2019-05-30T07:10:38.393Z,10396.00
2019-05-30T07:11:38.382Z,10392.00
2019-05-30T07:12:38.365Z,10416.00
2019-05-30T07:13:38.376Z,10424.00
2019-05-30T07:14:38.342Z,10420.00
2019-05-30T07:15:38.329Z,10428.00
2019-05-30T07:16:38.325Z,10412.00
2019-05-30T07:17:38.329Z,10396.00
2019-05-30T07:18:38.301Z,10376.00
2019-05-30T07:19:38.308Z,10392.00
2019-05-30T07:20:38.275Z,10380.00
2019-05-30T07:21:38.278Z,10384.00
2019-05-30T07:22:38.275Z,10356.00
2019-05-30T07:23:39.385Z,10356.00
2019-05-30T07:24:38.239Z,10340.00
2019-05-30T07:25:38.232Z,10336.00
2019-05-30T07:26:38.222Z,10332.00
2019-05-30T07:27:38.246Z,10332.00
2019-05-30T07:28:38.195Z,10324.00
2019-05-30T07:29:38.174Z,10316.00
2019-05-30T07:30:38.162Z,10324.00
2019-05-30T07:31:38.186Z,10324.00
2019-05-30T07:32:38.147Z,10356.00
2019-05-30T07:33:38.143Z,10352.00
2019-05-30T07:34:38.121Z,10348.00
2019-05-30T07:35:38.139Z,10348.00
2019-05-30T07:36:38.616Z,10348.00
2019-05-30T07:37:38.096Z,10344.00
2019-05-30T07:38:38.095Z,10308.00
2019-05-30T07:39:38.073Z,10300.00
2019-05-30T07:41:38.039Z,10384.00
2019-05-30T07:42:38.035Z,10384.00
2019-05-30T07:43:38.073Z,10376.00
2019-05-30T07:44:38.005Z,10380.00
2019-05-30T07:45:38.001Z,10392.00
2019-05-30T07:46:37.999Z,10404.00
2019-05-30T07:47:38.611Z,10412.00
2019-05-30T07:48:38.638Z,10420.00
2019-05-30T07:49:38.687Z,10432.00
2019-05-30T07:50:38.781Z,10440.00
2019-05-30T07:51:39.028Z,10440.00
2019-05-30T07:52:39.030Z,10440.00
2019-05-30T07:53:39.066Z,10460.00
2019-05-30T07:54:39.180Z,10464.00
2019-05-30T07:55:37.892Z,10456.00
2019-05-30T07:56:38.054Z,10472.00
2019-05-30T07:57:40.730Z,10468.00
2019-05-30T07:58:37.859Z,10476.00
2019-05-30T07:59:38.723Z,10472.00
2019-05-30T08:00:37.894Z,10488.00
2019-05-30T08:01:39.623Z,10496.00
2019-05-30T08:02:38.043Z,10508.00
2019-05-30T08:03:38.872Z,10572.00
2019-05-30T08:04:37.929Z,10604.00
2019-05-30T08:05:38.891Z,10592.00
2019-05-30T08:06:37.952Z,10604.00
2019-05-30T08:07:38.974Z,10580.00
2019-05-30T08:08:38.127Z,10560.00
2019-05-30T08:09:37.738Z,10552.00
2019-05-30T08:10:38.141Z,10544.00
2019-05-30T08:12:38.424Z,10524.00
2019-05-30T08:13:37.684Z,10528.00
2019-05-30T08:14:37.671Z,10532.00
2019-05-30T08:15:43.730Z,10532.00
2019-05-30T08:16:38.693Z,10540.00
2019-05-30T08:17:37.980Z,10572.00
2019-05-30T08:18:37.980Z,10572.00
2019-05-30T08:19:38.156Z,10568.00
2019-05-30T08:20:38.027Z,10568.00
2019-05-30T08:21:38.322Z,10576.00
2019-05-30T08:22:38.347Z,10572.00
2019-05-30T08:23:38.402Z,10552.00
2019-05-30T08:24:38.869Z,10564.00
2019-05-30T08:25:38.493Z,10560.00
2019-05-30T08:26:38.494Z,10556.00
2019-05-30T08:27:38.657Z,10552.00
2019-05-30T08:28:38.592Z,10544.00
2019-05-30T08:29:38.556Z,10556.00
2019-05-30T08:30:38.613Z,10580.00
2019-05-30T08:31:38.796Z,10568.00
2019-05-30T08:32:38.777Z,10600.00
2019-05-30T08:33:37.692Z,10616.00
2019-05-30T08:34:38.741Z,10584.00
2019-05-30T08:35:47.533Z,10564.00
2019-05-30T08:36:39.178Z,10552.00
2019-05-30T08:37:37.474Z,10572.00
2019-05-30T08:38:37.504Z,10556.00
2019-05-30T08:39:37.453Z,10560.00
2019-05-30T08:40:37.776Z,10568.00
2019-05-30T08:41:37.462Z,10556.00
2019-05-30T08:43:37.575Z,10544.00
2019-05-30T08:44:37.979Z,10536.00
2019-05-30T08:45:38.004Z,10548.00
2019-05-30T08:46:37.971Z,10552.00
2019-05-30T08:47:38.087Z,10548.00
2019-05-30T08:48:38.319Z,10536.00
2019-05-30T08:49:38.266Z,10576.00
2019-05-30T08:50:42.409Z,10564.00
2019-05-30T08:51:38.349Z,10552.00
2019-05-30T08:52:38.505Z,10532.00
2019-05-30T08:53:38.351Z,10568.00
2019-05-30T08:54:38.445Z,10564.00
2019-05-30T08:55:38.494Z,10544.00
2019-05-30T08:56:38.518Z,10512.00
2019-05-30T08:57:38.304Z,10512.00
2019-05-30T08:58:37.183Z,10508.00
2019-05-30T08:59:37.159Z,10480.00
2019-05-30T09:00:37.159Z,10460.00
2019-05-30T09:01:37.745Z,10464.00
2019-05-30T09:02:37.134Z,10460.00
2019-05-30T09:03:38.409Z,10448.00
2019-05-30T09:04:37.959Z,10436.00
2019-05-30T09:05:37.134Z,10432.00
2019-05-30T09:06:37.846Z,10432.00
2019-05-30T09:07:38.226Z,10408.00
2019-05-30T09:08:37.933Z,10404.00
2019-05-30T09:09:38.144Z,10408.00
2019-05-30T09:10:37.866Z,10400.00
2019-05-30T09:11:37.677Z,10384.00
2019-05-30T09:12:38.529Z,10376.00
2019-05-30T09:14:38.878Z,10352.00
2019-05-30T09:15:37.958Z,10352.00
2019-05-30T09:16:36.977Z,10328.00
2019-05-30T09:17:38.694Z,10320.00
2019-05-30T09:18:38.546Z,10320.00
2019-05-30T09:19:38.095Z,10316.00
2019-05-30T09:20:38.075Z,10316.00
2019-05-30T09:21:38.197Z,10300.00
2019-05-30T09:22:37.990Z,10296.00
2019-05-30T09:23:38.285Z,10284.00
2019-05-30T09:24:37.470Z,10288.00
2019-05-30T09:25:37.239Z,10276.00
2019-05-30T09:26:38.455Z,10280.00
2019-05-30T09:27:37.758Z,10280.00
2019-05-30T09:28:37.727Z,10288.00
2019-05-30T09:29:38.073Z,10272.00
2019-05-30T09:30:38.195Z,10244.00
2019-05-30T09:31:38.069Z,10244.00
2019-05-30T09:32:36.785Z,10236.00
2019-05-30T09:33:36.771Z,10236.00
2019-05-30T09:34:36.836Z,10212.00
2019-05-30T09:35:36.752Z,10224.00
2019-05-30T09:36:36.769Z,10236.00
2019-05-30T09:37:36.725Z,10224.00
2019-05-30T09:38:36.759Z,10224.00
2019-05-30T09:39:36.713Z,10232.00
2019-05-30T09:40:36.696Z,10252.00
2019-05-30T09:41:36.683Z,10240.00
2019-05-30T09:42:36.684Z,10172.00
2019-05-30T09:43:36.672Z,10156.00
2019-05-30T09:45:36.635Z,10148.00
2019-05-30T09:46:36.660Z,10184.00
2019-05-30T09:47:36.622Z,10156.00
2019-05-30T09:48:36.604Z,10180.00
2019-05-30T09:49:36.594Z,10264.00
2019-05-30T09:50:36.575Z,10252.00
2019-05-30T09:51:36.566Z,10232.00
2019-05-30T09:52:36.563Z,10280.00
2019-05-30T09:53:36.572Z,10272.00
2019-05-30T09:54:36.575Z,10092.00
2019-05-30T09:55:36.530Z,10088.00
2019-05-30T09:56:36.520Z,10072.00
2019-05-30T09:57:36.623Z,10072.00
2019-05-30T09:58:36.504Z,10060.00
2019-05-30T09:59:36.539Z,10072.00
2019-05-30T10:00:36.472Z,10072.00
2019-05-30T10:01:36.460Z,10068.00
2019-05-30T10:02:36.441Z,10076.00
2019-05-30T10:03:36.475Z,10064.00
2019-05-30T10:04:36.419Z,10044.00
2019-05-30T10:05:36.449Z,10052.00
2019-05-30T10:06:36.396Z,10044.00
2019-05-30T10:07:36.393Z,10032.00
2019-05-30T10:08:36.378Z,10028.00
2019-05-30T10:09:36.378Z,10016.00
2019-05-30T10:10:36.378Z,10012.00
2019-05-30T10:11:36.411Z,10016.00
2019-05-30T10:12:36.332Z,10032.00
2019-05-30T10:13:36.318Z,10032.00
2019-05-30T10:14:36.346Z,10024.00
2019-05-30T10:15:48.548Z,10020.00
2019-05-30T10:16:36.283Z,9984.00
2019-05-30T10:17:36.274Z,9940.00
2019-05-30T10:18:36.276Z,9928.00
2019-05-30T10:19:36.258Z,9924.00
2019-05-30T10:20:36.248Z,9920.00
2019-05-30T10:21:36.236Z,9924.00
2019-05-30T10:22:36.225Z,9920.00
2019-05-30T10:23:36.210Z,9920.00
2019-05-30T10:24:36.202Z,9904.00
2019-05-30T10:25:36.198Z,9896.00
2019-05-30T10:26:36.169Z,9896.00
2019-05-30T10:27:36.168Z,9856.00
2019-05-30T10:28:36.147Z,9848.00
2019-05-30T10:29:36.146Z,9840.00
2019-05-30T10:30:36.169Z,9836.00
2019-05-30T10:31:36.120Z,9896.00
2019-05-30T10:32:36.107Z,9932.00
2019-05-30T10:33:36.100Z,9916.00
2019-05-30T10:34:36.129Z,9940.00
2019-05-30T10:35:36.085Z,9964.00
2019-05-30T10:36:44.333Z,10032.00
2019-05-30T10:37:37.054Z,10124.00
2019-05-30T10:38:36.044Z,10192.00
2019-05-30T10:39:36.024Z,10204.00
2019-05-30T10:40:36.052Z,10268.00
2019-05-30T10:41:36.065Z,10212.00
2019-05-30T10:42:36.002Z,10080.00
2019-05-30T10:43:36.001Z,9980.00
2019-05-30T10:44:35.969Z,9912.00
2019-05-30T10:45:38.589Z,9864.00
2019-05-30T10:46:48.957Z,9828.00
2019-05-30T10:47:35.927Z,9848.00
2019-05-30T10:48:35.922Z,9892.00
2019-05-30T10:49:35.910Z,9932.00
2019-05-30T10:50:35.896Z,9976.00
2019-05-30T10:51:35.887Z,9976.00
2019-05-30T10:52:35.880Z,9972.00
2019-05-30T10:53:37.599Z,9968.00
2019-05-30T10:54:35.860Z,9952.00
2019-05-30T10:55:35.842Z,10092.00
2019-05-30T10:56:35.829Z,9968.00
2019-05-30T10:57:35.830Z,10040.00
2019-05-30T10:58:35.802Z,10036.00
2019-05-30T10:59:35.830Z,10180.00
2019-05-30T11:00:35.802Z,10284.00
2019-05-30T11:01:35.789Z,10264.00
2019-05-30T11:02:35.764Z,10348.00
2019-05-30T11:03:35.755Z,10444.00
2019-05-30T11:04:35.742Z,10536.00
2019-05-30T11:05:35.732Z,10444.00
2019-05-30T11:06:35.716Z,10236.00
2019-05-30T11:07:35.711Z,9388.00
2019-05-30T11:08:35.706Z,10096.00
2019-05-30T11:09:35.690Z,10084.00
2019-05-30T11:10:35.668Z,10092.00
2019-05-30T11:11:35.663Z,10100.00
2019-05-30T11:12:35.668Z,10252.00
2019-05-30T11:13:35.644Z,10608.00
2019-05-30T11:14:35.640Z,10916.00
2019-05-30T11:15:35.620Z,11000.00
2019-05-30T11:16:35.607Z,10988.00
2019-05-30T11:17:48.993Z,11052.00
2019-05-30T11:18:35.592Z,10564.00
2019-05-30T11:19:35.573Z,10748.00
2019-05-30T11:20:35.559Z,10656.00
2019-05-30T11:21:35.551Z,10624.00
2019-05-30T11:22:35.538Z,10684.00
2019-05-30T11:23:35.531Z,6808.00
2019-05-30T11:24:35.521Z,9000.00
2019-05-30T11:25:35.514Z,9876.00
2019-05-30T11:26:35.492Z,6568.00
2019-05-30T11:27:35.485Z,6616.00
2019-05-30T11:28:35.489Z,11088.00
2019-05-30T11:29:35.467Z,10864.00
2019-05-30T11:30:35.477Z,10848.00
2019-05-30T11:31:35.457Z,10884.00
2019-05-30T11:32:35.454Z,10980.00
2019-05-30T11:33:35.432Z,7964.00
2019-05-30T11:34:35.421Z,11264.00
2019-05-30T11:35:35.391Z,11440.00
2019-05-30T11:36:35.409Z,7308.00
2019-05-30T11:37:35.370Z,6776.00
2019-05-30T11:38:35.364Z,7688.00
2019-05-30T11:39:35.397Z,11536.00
2019-05-30T11:40:35.950Z,11264.00
2019-05-30T11:41:35.330Z,10132.00
2019-05-30T11:42:35.320Z,11236.00
2019-05-30T11:43:35.315Z,11120.00
2019-05-30T11:44:35.321Z,11112.00
2019-05-30T11:45:35.301Z,11184.00
2019-05-30T11:46:35.274Z,11208.00
2019-05-30T11:47:35.258Z,11444.00
2019-05-30T11:48:46.904Z,11452.00
2019-05-30T11:49:35.234Z,11244.00
2019-05-30T11:50:35.259Z,10908.00
2019-05-30T11:51:35.211Z,10488.00
2019-05-30T11:52:35.203Z,10192.00
2019-05-30T11:53:35.187Z,9952.00
2019-05-30T11:54:35.180Z,9720.00
2019-05-30T11:55:35.169Z,9480.00
2019-05-30T11:56:35.168Z,9296.00
2019-05-30T11:57:35.190Z,9164.00
2019-05-30T11:58:35.142Z,9064.00
2019-05-30T11:59:35.119Z,8992.00
2019-05-30T12:00:35.116Z,8964.00
2019-05-30T12:01:35.108Z,8920.00
2019-05-30T12:02:35.130Z,8876.00
2019-05-30T12:03:35.078Z,8848.00
2019-05-30T12:04:35.082Z,8808.00
2019-05-30T12:05:35.051Z,8756.00
2019-05-30T12:06:35.094Z,8700.00
2019-05-30T12:07:36.799Z,8668.00
2019-05-30T12:08:35.020Z,8656.00
2019-05-30T12:09:35.045Z,8632.00
2019-05-30T12:10:34.996Z,8608.00
2019-05-30T12:11:34.982Z,8544.00
2019-05-30T12:12:35.045Z,8596.00
2019-05-30T12:13:34.970Z,8604.00
2019-05-30T12:14:34.956Z,8592.00
2019-05-30T12:15:34.956Z,8580.00
2019-05-30T12:16:35.036Z,8568.00
2019-05-30T12:17:34.926Z,8532.00
2019-05-30T12:18:34.905Z,8508.00
2019-05-30T12:19:46.538Z,8488.00
2019-05-30T12:20:34.886Z,8476.00
2019-05-30T12:21:34.875Z,8456.00
2019-05-30T12:22:34.872Z,8448.00
2019-05-30T12:23:34.851Z,8432.00
2019-05-30T12:24:34.845Z,8408.00
2019-05-30T12:25:34.831Z,8388.00
2019-05-30T12:26:34.822Z,8364.00
2019-05-30T12:27:34.940Z,8344.00
2019-05-30T12:28:34.839Z,8328.00
2019-05-30T12:29:34.795Z,8320.00
2019-05-30T12:30:34.772Z,8312.00
2019-05-30T12:31:34.777Z,8300.00
2019-05-30T12:32:34.760Z,8296.00
2019-05-30T12:33:34.759Z,8308.00
2019-05-30T12:34:34.728Z,8268.00
2019-05-30T12:35:34.725Z,8256.00
2019-05-30T12:36:34.701Z,8236.00
2019-05-30T12:37:34.699Z,8224.00
2019-05-30T12:38:34.803Z,8184.00
2019-05-30T12:39:34.677Z,8184.00
2019-05-30T12:40:34.668Z,8172.00
2019-05-30T12:41:34.658Z,8160.00
2019-05-30T12:42:34.657Z,8148.00
2019-05-30T12:43:34.664Z,8132.00
2019-05-30T12:44:34.615Z,8104.00
2019-05-30T12:45:34.624Z,8096.00
2019-05-30T12:46:34.625Z,8088.00
2019-05-30T12:47:34.585Z,8072.00
2019-05-30T12:48:34.567Z,8060.00
2019-05-30T12:49:34.566Z,8048.00
2019-05-30T12:50:46.184Z,8036.00
2019-05-30T12:51:34.532Z,8016.00
2019-05-30T12:52:34.526Z,8012.00
2019-05-30T12:53:34.513Z,8000.00
2019-05-30T12:54:34.505Z,7984.00
2019-05-30T12:55:37.576Z,7972.00
2019-05-30T12:56:34.500Z,7956.00
2019-05-30T12:57:34.581Z,7924.00
2019-05-30T12:58:34.620Z,7900.00
2019-05-30T12:59:34.709Z,7876.00
2019-05-30T13:00:34.431Z,7852.00
2019-05-30T13:01:34.422Z,7844.00
2019-05-30T13:02:34.411Z,7840.00
2019-05-30T13:03:34.424Z,7840.00
2019-05-30T13:04:34.388Z,7828.00
2019-05-30T13:05:34.395Z,7808.00
2019-05-30T13:06:34.386Z,7784.00
2019-05-30T13:07:34.370Z,7768.00
2019-05-30T13:08:34.356Z,7756.00
2019-05-30T13:09:34.353Z,7744.00
2019-05-30T13:10:34.330Z,7736.00
2019-05-30T13:11:34.315Z,7720.00
2019-05-30T13:12:34.296Z,7708.00
2019-05-30T13:13:34.282Z,7712.00
2019-05-30T13:14:34.299Z,7692.00
2019-05-30T13:15:34.282Z,7692.00
2019-05-30T13:16:34.264Z,7672.00
2019-05-30T13:17:34.282Z,7668.00
2019-05-30T13:18:34.251Z,7656.00
2019-05-30T13:19:34.221Z,7644.00
2019-05-30T13:20:34.210Z,7648.00
2019-05-30T13:21:46.111Z,7636.00
2019-05-30T13:22:34.189Z,7648.00
2019-05-30T13:23:34.173Z,7648.00
2019-05-30T13:24:34.158Z,7624.00
2019-05-30T13:25:34.147Z,7588.00
2019-05-30T13:26:34.179Z,7568.00
2019-05-30T13:27:34.125Z,7544.00
2019-05-30T13:28:34.206Z,7544.00
2019-05-30T13:29:34.105Z,7540.00
2019-05-30T13:30:34.157Z,7520.00
2019-05-30T13:31:34.085Z,7504.00
2019-05-30T13:32:34.091Z,7488.00
2019-05-30T13:33:34.071Z,7484.00
2019-05-30T13:34:34.055Z,7476.00
2019-05-30T13:35:34.045Z,7456.00
2019-05-30T13:36:34.087Z,7440.00
2019-05-30T13:37:34.031Z,7416.00
2019-05-30T13:38:34.018Z,7416.00
2019-05-30T13:39:34.022Z,7404.00
2019-05-30T13:40:33.989Z,7396.00
2019-05-30T13:41:33.978Z,7376.00
2019-05-30T13:42:34.000Z,7372.00
2019-05-30T13:43:33.978Z,7356.00
2019-05-30T13:44:33.935Z,7368.00
2019-05-30T13:45:33.935Z,7364.00
2019-05-30T13:46:33.930Z,7344.00
2019-05-30T13:47:33.908Z,7336.00
2019-05-30T13:48:33.905Z,7320.00
2019-05-30T13:49:33.894Z,7312.00
2019-05-30T13:50:33.874Z,7276.00
2019-05-30T13:51:34.014Z,7264.00
2019-05-30T13:52:45.657Z,7268.00
2019-05-30T13:53:33.843Z,7252.00
2019-05-30T13:54:33.836Z,7244.00
2019-05-30T13:55:33.814Z,7236.00
2019-05-30T13:56:33.810Z,7216.00
2019-05-30T13:57:33.790Z,7200.00
2019-05-30T13:58:33.788Z,7196.00
2019-05-30T13:59:33.821Z,7176.00
2019-05-30T14:00:33.781Z,7164.00
2019-05-30T14:01:33.755Z,7152.00
2019-05-30T14:02:33.745Z,7144.00
2019-05-30T14:03:33.736Z,7124.00
2019-05-30T14:04:33.716Z,7112.00
2019-05-30T14:05:33.725Z,7068.00
2019-05-30T14:06:33.697Z,7080.00
2019-05-30T14:07:33.716Z,7072.00
2019-05-30T14:08:41.484Z,7052.00
2019-05-30T14:09:34.664Z,7052.00
2019-05-30T14:10:33.683Z,7036.00
2019-05-30T14:11:33.642Z,7040.00
2019-05-30T14:12:33.670Z,7024.00
2019-05-30T14:13:33.622Z,7028.00
2019-05-30T14:14:33.615Z,7008.00
2019-05-30T14:15:33.773Z,6996.00
2019-05-30T14:16:33.591Z,6988.00
2019-05-30T14:17:33.573Z,6984.00
2019-05-30T14:18:33.565Z,6948.00
2019-05-30T14:19:33.611Z,6956.00
2019-05-30T14:20:33.549Z,6940.00
2019-05-30T14:21:33.551Z,6928.00
2019-05-30T14:22:33.522Z,6924.00
2019-05-30T14:23:45.547Z,6900.00
2019-05-30T14:24:33.492Z,6892.00
2019-05-30T14:25:33.490Z,6876.00
2019-05-30T14:26:33.487Z,6868.00